Time;durP1;ratioP1;P1;durP2;ratioP2;P2;SDS_P1;SDS_P2;PMS_P1;PMS_P2;Temp;Humidity;BMP_temperature;BMP_pressure;BME280_temperature;BME280_humidity;BME280_pressure;Samples;Min_cycle;Max_cycle;Signal;HPM_P1;HPM_P2
2022/04/17 00:02:05;;;;;;;8.03;4.90;;;;;7.40;102326.00;;;;10524790;28;20188;-78
2022/04/17 00:07:07;;;;;;;8.50;5.90;;;;;7.20;102322.00;;;;10493291;28;20571;-79
2022/04/17 00:12:10;;;;;;;10.57;5.70;;;;;7.00;102321.00;;;;10503186;28;20184;-78
2022/04/17 00:17:13;;;;;;;7.27;5.77;;;;;6.80;102325.00;;;;10548334;28;20274;-78
2022/04/17 00:22:15;;;;;;;7.67;5.17;;;;;6.70;102313.00;;;;10523192;28;20533;-78
2022/04/17 00:27:17;;;;;;;6.87;5.23;;;;;6.50;102310.00;;;;10531557;28;20196;-78
2022/04/17 00:32:19;;;;;;;7.37;5.10;;;;;6.30;102313.00;;;;10509272;28;20185;-78
2022/04/17 00:37:21;;;;;;;8.10;4.90;;;;;6.20;102312.00;;;;10519004;28;20740;-78
2022/04/17 00:42:23;;;;;;;7.80;5.17;;;;;6.00;102304.00;;;;10493415;28;20204;-78
2022/04/17 00:47:26;;;;;;;10.17;5.30;;;;;5.90;102301.00;;;;10551423;28;20225;-78
2022/04/17 00:52:28;;;;;;;8.37;5.23;;;;;5.80;102301.00;;;;10502065;28;20188;-78
2022/04/17 00:57:31;;;;;;;7.00;4.90;;;;;5.70;102293.00;;;;10521682;28;20199;-77
2022/04/17 01:02:33;;;;;;;6.47;5.07;;;;;5.70;102289.00;;;;10511672;28;20188;-77
2022/04/17 01:07:37;;;;;;;8.20;5.70;;;;;5.60;102298.00;;;;10542367;28;20208;-77
2022/04/17 01:12:39;;;;;;;7.70;5.10;;;;;5.60;102303.00;;;;10524688;28;20237;-77
2022/04/17 01:17:41;;;;;;;8.33;5.53;;;;;5.50;102302.00;;;;10509812;28;20199;-77
2022/04/17 01:22:49;;;;;;;7.37;5.43;;;;;5.40;102299.00;;;;10533064;28;20200;-78
2022/04/17 01:27:51;;;;;;;10.73;5.30;;;;;5.30;102296.00;;;;10520710;28;20249;-78
2022/04/17 01:32:53;;;;;;;8.53;4.90;;;;;5.10;102301.00;;;;10529457;28;20193;-78
2022/04/17 01:37:55;;;;;;;7.33;5.20;;;;;5.00;102296.00;;;;10519650;28;20204;-77
2022/04/17 01:42:57;;;;;;;5.53;4.40;;;;;4.90;102292.00;;;;10537670;28;20556;-78
2022/04/17 01:47:59;;;;;;;7.40;5.47;;;;;4.80;102295.00;;;;10528185;28;20209;-77
2022/04/17 01:53:02;;;;;;;6.37;5.47;;;;;4.70;102284.00;;;;10517968;27;20263;-77
2022/04/17 01:58:04;;;;;;;8.70;5.60;;;;;4.60;102291.00;;;;10529784;28;20207;-77
2022/04/17 02:03:06;;;;;;;7.40;5.83;;;;;4.50;102293.00;;;;10499274;28;20200;-78
2022/04/17 02:08:08;;;;;;;7.80;5.50;;;;;4.40;102299.00;;;;10510760;28;20204;-78
2022/04/17 02:13:10;;;;;;;8.70;6.60;;;;;4.30;102289.00;;;;10521456;28;20188;-78
2022/04/17 02:18:13;;;;;;;8.53;5.73;;;;;4.30;102284.00;;;;10546968;28;20200;-78
2022/04/17 02:23:15;;;;;;;9.07;6.63;;;;;4.20;102293.00;;;;10548928;27;20246;-77
2022/04/17 02:28:17;;;;;;;7.70;5.53;;;;;4.10;102289.00;;;;10483751;28;20212;-78
2022/04/17 02:33:19;;;;;;;8.87;6.27;;;;;3.90;102285.00;;;;10493915;28;20190;-77
2022/04/17 02:38:21;;;;;;;9.93;5.67;;;;;4.00;102288.00;;;;10524327;28;20263;-77
2022/04/17 02:43:24;;;;;;;10.33;5.17;;;;;4.10;102284.00;;;;10532375;28;20288;-77
2022/04/17 02:48:26;;;;;;;6.50;4.80;;;;;4.30;102274.00;;;;10532031;28;20212;-77
2022/04/17 02:53:30;;;;;;;6.47;5.10;;;;;4.30;102273.00;;;;10526134;27;20205;-77
2022/04/17 02:58:32;;;;;;;5.60;4.40;;;;;4.40;102275.00;;;;10536873;28;20246;-77
2022/04/17 03:08:55;;;;;;;6.13;4.90;;;;;4.30;102263.00;;;;10514186;28;20255;-77
2022/04/17 03:13:56;;;;;;;6.20;4.27;;;;;4.20;102264.00;;;;10526130;28;20189;-76
2022/04/17 03:18:59;;;;;;;6.53;5.03;;;;;4.10;102257.00;;;;10513965;28;20195;-77
2022/04/17 03:24:01;;;;;;;6.10;4.47;;;;;4.10;102254.00;;;;10521885;28;20539;-77
2022/04/17 03:29:03;;;;;;;8.93;5.43;;;;;4.00;102252.00;;;;10506496;28;20197;-78
2022/04/17 03:34:08;;;;;;;8.03;5.10;;;;;3.90;102244.00;;;;10508804;28;20190;-78
2022/04/17 03:39:10;;;;;;;8.33;5.53;;;;;3.90;102245.00;;;;10513550;28;20211;-77
2022/04/17 03:44:12;;;;;;;8.20;4.97;;;;;3.90;102235.00;;;;10511804;28;20629;-77
2022/04/17 03:49:14;;;;;;;6.27;4.37;;;;;3.80;102246.00;;;;10532546;28;20213;-78
2022/04/17 03:54:16;;;;;;;6.87;4.27;;;;;3.70;102251.00;;;;10510267;28;20235;-78
2022/04/17 03:59:18;;;;;;;5.73;4.63;;;;;3.50;102249.00;;;;10513861;28;20188;-77
2022/04/17 04:04:20;;;;;;;9.83;4.87;;;;;3.30;102251.00;;;;10497880;28;20652;-78
2022/04/17 04:09:22;;;;;;;6.57;4.47;;;;;3.10;102246.00;;;;10516638;28;20225;-77
2022/04/17 04:14:24;;;;;;;7.47;4.63;;;;;2.90;102244.00;;;;10506626;28;20229;-76
2022/04/17 04:19:26;;;;;;;8.50;5.23;;;;;2.80;102236.00;;;;10492224;28;20289;-77
2022/04/17 04:24:28;;;;;;;9.60;5.13;;;;;2.70;102234.00;;;;10546116;28;20274;-77
2022/04/17 04:29:30;;;;;;;7.30;4.70;;;;;2.70;102226.00;;;;10524143;28;20205;-77
2022/04/17 04:34:32;;;;;;;7.33;5.73;;;;;2.70;102230.00;;;;10493717;28;20203;-76
2022/04/17 04:39:34;;;;;;;5.77;4.53;;;;;2.60;102226.00;;;;10507966;28;20208;-78
2022/04/17 04:44:36;;;;;;;6.20;4.47;;;;;2.60;102228.00;;;;10522457;28;20189;-77
2022/04/17 04:49:38;;;;;;;7.60;4.63;;;;;2.50;102224.00;;;;10510740;28;20208;-77
2022/04/17 04:54:40;;;;;;;6.77;4.97;;;;;2.50;102221.00;;;;10513284;28;20813;-77
2022/04/17 04:59:42;;;;;;;9.73;5.50;;;;;2.50;102213.00;;;;10526280;28;20866;-77
2022/04/17 05:04:44;;;;;;;8.43;5.00;;;;;2.60;102214.00;;;;10545322;28;20199;-77
2022/04/17 05:09:46;;;;;;;8.23;5.70;;;;;2.80;102220.00;;;;10515803;28;20246;-77
2022/04/17 05:14:48;;;;;;;6.40;4.93;;;;;3.10;102224.00;;;;10520017;28;20203;-76
2022/04/17 05:19:50;;;;;;;6.00;4.87;;;;;3.30;102227.00;;;;10515109;27;20195;-76
2022/04/17 05:24:52;;;;;;;7.60;4.70;;;;;3.60;102223.00;;;;10537017;28;20196;-77
2022/04/17 05:29:54;;;;;;;8.67;5.60;;;;;4.10;102225.00;;;;10508292;28;20612;-77
2022/04/17 05:34:56;;;;;;;6.30;4.83;;;;;4.90;102223.00;;;;10520097;28;20185;-78
2022/04/17 05:39:59;;;;;;;6.57;4.20;;;;;5.60;102223.00;;;;10541016;28;20216;-78
2022/04/17 05:45:02;;;;;;;8.80;4.20;;;;;5.80;102213.00;;;;10504247;28;20196;-77
2022/04/17 05:50:05;;;;;;;6.50;4.50;;;;;5.90;102220.00;;;;10529401;28;20207;-77
2022/04/17 05:55:09;;;;;;;7.23;4.70;;;;;6.20;102209.00;;;;10504098;28;20211;-78
2022/04/17 06:00:12;;;;;;;6.40;4.20;;;;;6.50;102207.00;;;;10529569;28;20586;-77
2022/04/17 06:05:15;;;;;;;6.30;4.27;;;;;6.90;102216.00;;;;10517935;28;20213;-78
2022/04/17 06:10:17;;;;;;;7.47;4.00;;;;;7.30;102213.00;;;;10508909;28;20712;-77
2022/04/17 06:15:19;;;;;;;5.70;4.27;;;;;7.90;102218.00;;;;10553876;28;20192;-77
2022/04/17 06:20:21;;;;;;;5.47;4.20;;;;;8.50;102215.00;;;;10557451;28;20181;-77
2022/04/17 06:25:23;;;;;;;5.27;3.67;;;;;9.10;102212.00;;;;10554282;28;20274;-78
2022/04/17 06:30:25;;;;;;;5.73;3.83;;;;;9.60;102219.00;;;;10542142;28;20231;-78
2022/04/17 06:35:28;;;;;;;4.80;3.70;;;;;10.00;102206.00;;;;10513204;28;20554;-77
2022/04/17 06:40:32;;;;;;;4.23;3.73;;;;;10.30;102208.00;;;;10547096;28;20710;-78
2022/04/17 06:45:35;;;;;;;4.73;2.97;;;;;10.70;102206.00;;;;10509289;28;20212;-77
2022/04/17 06:50:38;;;;;;;3.40;3.10;;;;;11.30;102198.00;;;;10528446;28;20196;-77
2022/04/17 06:55:40;;;;;;;5.50;3.30;;;;;11.70;102210.00;;;;10565380;28;20245;-78
2022/04/17 07:00:42;;;;;;;4.83;3.10;;;;;12.20;102203.00;;;;10570081;28;20201;-78
2022/04/17 07:05:44;;;;;;;3.50;3.20;;;;;12.60;102207.00;;;;10509303;28;20261;-78
2022/04/17 07:10:46;;;;;;;4.73;3.37;;;;;13.00;102201.00;;;;10539300;28;20267;-77
2022/04/17 07:15:48;;;;;;;4.27;3.30;;;;;13.10;102193.00;;;;10528370;28;20234;-78
2022/04/17 07:20:50;;;;;;;5.50;3.40;;;;;13.60;102200.00;;;;10514290;27;20192;-79
2022/04/17 07:25:53;;;;;;;4.00;2.90;;;;;13.90;102193.00;;;;10547627;27;20303;-78
2022/04/17 07:30:55;;;;;;;2.73;2.47;;;;;14.30;102191.00;;;;10503439;28;20196;-76
2022/04/17 07:35:57;;;;;;;5.20;2.30;;;;;14.50;102186.00;;;;10521089;28;20558;-78
2022/04/17 07:40:59;;;;;;;3.93;2.67;;;;;14.80;102184.00;;;;10529484;28;20216;-79
2022/04/17 07:46:01;;;;;;;3.60;2.60;;;;;15.00;102188.00;;;;10517692;28;20706;-78
2022/04/17 07:51:03;;;;;;;3.63;2.47;;;;;15.30;102182.00;;;;10530436;28;20197;-78
2022/04/17 07:56:05;;;;;;;3.50;2.63;;;;;15.50;102172.00;;;;10492361;28;20735;-78
2022/04/17 08:01:11;;;;;;;4.63;2.77;;;;;16.10;102173.00;;;;10509240;28;20199;-78
2022/04/17 08:06:17;;;;;;;2.88;2.58;;;;;16.50;102156.00;;;;10527224;28;20678;-78
2022/04/17 08:11:20;;;;;;;3.40;2.60;;;;;16.80;102161.00;;;;10503547;28;20188;-78
2022/04/17 08:16:22;;;;;;;3.28;2.65;;;;;17.00;102154.00;;;;10555809;27;20184;-78
2022/04/17 08:21:24;;;;;;;3.75;2.50;;;;;17.40;102155.00;;;;10553350;27;20200;-78
2022/04/17 08:26:27;;;;;;;4.88;2.47;;;;;17.70;102160.00;;;;10565025;27;20230;-77
2022/04/17 08:31:29;;;;;;;2.92;2.58;;;;;17.70;102166.00;;;;10582990;27;20196;-79
2022/04/17 08:36:32;;;;;;;5.15;2.50;;;;;18.30;102156.00;;;;10522217;28;20203;-79
2022/04/17 08:41:34;;;;;;;2.95;2.60;;;;;18.60;102156.00;;;;10523132;28;20224;-79
2022/04/17 08:46:36;;;;;;;3.22;2.70;;;;;18.70;102154.00;;;;10512355;27;20219;-78
2022/04/17 08:51:39;;;;;;;3.58;2.45;;;;;19.20;102150.00;;;;10524689;28;20199;-78
2022/04/17 08:56:41;;;;;;;3.38;2.60;;;;;19.40;102154.00;;;;10509719;28;20195;-77
2022/04/17 09:01:43;;;;;;;4.88;2.65;;;;;19.50;102148.00;;;;10543682;28;20401;-78
2022/04/17 09:06:45;;;;;;;2.88;2.42;;;;;19.60;102148.00;;;;10522018;28;20240;-78
2022/04/17 09:11:53;;;;;;;3.78;2.67;;;;;19.40;102148.00;;;;10512031;28;20199;-77
2022/04/17 09:16:55;;;;;;;4.15;2.92;;;;;19.70;102139.00;;;;10527356;28;20271;-78
2022/04/17 09:21:57;;;;;;;3.67;3.00;;;;;19.80;102135.00;;;;10496674;28;20200;-77
2022/04/17 09:26:59;;;;;;;4.07;3.35;;;;;19.70;102117.00;;;;10543663;28;20196;-78
2022/04/17 09:32:13;;;;;;;4.85;2.92;;;;;19.80;102128.00;;;;10529387;28;20197;-77
2022/04/17 09:37:17;;;;;;;3.40;3.10;;;;;20.30;102117.00;;;;10527277;28;20188;-78
2022/04/17 09:42:25;;;;;;;5.00;3.20;;;;;20.50;102106.00;;;;10533206;28;20209;-78
2022/04/17 09:47:31;;;;;;;5.65;3.40;;;;;20.30;102103.00;;;;10509435;28;20244;-77
2022/04/17 09:52:43;;;;;;;4.30;3.25;;;;;20.40;102099.00;;;;10492620;27;20212;-78
2022/04/17 09:57:56;;;;;;;5.53;3.40;;;;;20.70;102086.00;;;;10521685;27;20663;-77
2022/04/17 10:02:59;;;;;;;6.97;3.80;;;;;20.50;102084.00;;;;10577089;27;20196;-77
2022/04/17 10:08:02;;;;;;;5.05;3.10;;;;;20.70;102069.00;;;;10536820;27;20201;-78
2022/04/17 10:13:06;;;;;;;5.75;3.67;;;;;21.20;102070.00;;;;10522166;28;20246;-78
2022/04/17 10:18:13;;;;;;;5.57;3.58;;;;;21.00;102057.00;;;;10540870;28;20180;-78
2022/04/17 10:23:21;;;;;;;4.18;3.78;;;;;21.10;102050.00;;;;10544830;28;20188;-79
2022/04/17 10:28:26;;;;;;;3.63;3.33;;;;;21.30;102039.00;;;;10524449;28;20206;-79
2022/04/17 10:33:38;;;;;;;4.32;3.78;;;;;21.50;102036.00;;;;10536255;28;20224;-80
2022/04/17 10:39:06;;;;;;;4.30;3.42;;;;;21.90;102032.00;;;;10553530;28;20643;-79
2022/04/17 10:44:12;;;;;;;3.58;3.35;;;;;21.90;102027.00;;;;10517062;28;20264;-79
2022/04/17 10:49:20;;;;;;;5.03;3.95;;;;;21.90;102016.00;;;;10521641;28;20216;-78
2022/04/17 10:54:22;;;;;;;4.68;4.10;;;;;22.00;102014.00;;;;10516787;28;20201;-79
2022/04/17 10:59:34;;;;;;;4.85;3.90;;;;;22.10;102007.00;;;;10541548;28;20838;-79
2022/04/17 11:04:53;;;;;;;4.05;3.63;;;;;22.80;101998.00;;;;10541506;28;20275;-79
2022/04/17 11:10:31;;;;;;;4.68;4.07;;;;;23.30;101992.00;;;;10543581;27;20197;-78
2022/04/17 11:15:37;;;;;;;4.22;3.83;;;;;23.40;101982.00;;;;10545515;28;20188;-79
2022/04/17 11:20:39;;;;;;;6.00;3.65;;;;;23.20;101978.00;;;;10554827;27;20189;-78
2022/04/17 11:25:53;;;;;;;4.43;4.03;;;;;23.20;101972.00;;;;10548576;28;20288;-79
2022/04/17 11:30:57;;;;;;;5.60;4.88;;;;;23.30;101964.00;;;;10551679;28;20200;-79
2022/04/17 11:36:00;;;;;;;6.50;3.92;;;;;23.40;101948.00;;;;10550927;28;20651;-78
2022/04/17 11:41:07;;;;;;;5.15;4.05;;;;;23.60;101936.00;;;;10528462;28;20217;-79
2022/04/17 11:46:09;;;;;;;4.35;3.85;;;;;23.70;101943.00;;;;10531963;28;20246;-79
2022/04/17 11:51:20;;;;;;;4.60;4.20;;;;;23.80;101935.00;;;;10548894;27;20211;-78
2022/04/17 11:56:22;;;;;;;4.65;4.05;;;;;23.60;101918.00;;;;10544301;28;20279;-79
2022/04/17 12:01:24;;;;;;;7.93;4.95;;;;;24.10;101911.00;;;;10512519;28;20211;-78
2022/04/17 12:06:27;;;;;;;4.82;4.25;;;;;24.00;101902.00;;;;10542065;28;20207;-80
2022/04/17 12:11:29;;;;;;;4.28;3.90;;;;;23.90;101893.00;;;;10538864;28;20195;-79
2022/04/17 12:16:31;;;;;;;4.35;3.97;;;;;23.90;101889.00;;;;10549761;27;20271;-79
2022/04/17 12:21:33;;;;;;;5.35;4.20;;;;;23.90;101869.00;;;;10557845;27;20180;-80
2022/04/17 12:26:35;;;;;;;4.78;4.38;;;;;24.20;101870.00;;;;10532576;28;20624;-80
2022/04/17 12:31:37;;;;;;;5.63;4.47;;;;;24.20;101854.00;;;;10550004;27;20278;-79
2022/04/17 12:36:42;;;;;;;5.35;4.03;;;;;24.20;101840.00;;;;10547119;27;20234;-80
2022/04/17 12:41:49;;;;;;;4.57;4.18;;;;;24.00;101831.00;;;;10551379;28;20775;-80
2022/04/17 12:46:51;;;;;;;4.88;3.92;;;;;24.30;101826.00;;;;10512841;28;20213;-79
2022/04/17 12:51:54;;;;;;;5.57;4.15;;;;;24.30;101815.00;;;;10567586;27;20199;-79
2022/04/17 12:57:05;;;;;;;4.45;3.75;;;;;24.30;101813.00;;;;10540907;28;20184;-79
2022/04/17 13:02:19;;;;;;;3.30;3.00;;;;;24.50;101807.00;;;;10555770;28;20192;-80
2022/04/17 13:07:21;;;;;;;3.58;3.15;;;;;24.60;101801.00;;;;10536167;28;20239;-79
2022/04/17 13:12:46;;;;;;;3.10;2.75;;;;;24.80;101793.00;;;;10541650;28;20212;-79
2022/04/17 13:17:52;;;;;;;3.60;2.83;;;;;25.10;101774.00;;;;10551906;28;20184;-80
2022/04/17 13:22:55;;;;;;;3.70;3.20;;;;;25.50;101774.00;;;;10554614;28;20188;-80
2022/04/17 13:27:56;;;;;;;4.88;2.80;;;;;26.00;101767.00;;;;10549925;27;20204;-79
2022/04/17 13:32:59;;;;;;;3.75;3.38;;;;;26.30;101750.00;;;;10578677;27;20200;-79
2022/04/17 13:38:36;;;;;;;4.38;3.80;;;;;27.70;101745.00;;;;10550038;27;20683;-79
2022/04/17 13:43:30;;;;;;;4.68;3.20;;;;;30.00;101719.00;;;;10553075;27;20208;-80
2022/04/17 13:48:32;;;;;;;5.32;3.65;;;;;28.70;101710.00;;;;10544998;28;20215;-80
2022/04/17 13:53:34;;;;;;;3.58;3.03;;;;;30.90;101694.00;;;;10561476;28;20206;-80
2022/04/17 13:58:39;;;;;;;3.92;3.08;;;;;32.30;101699.00;;;;10546574;27;20224;-79
2022/04/17 14:03:42;;;;;;;3.40;3.10;;;;;33.00;101681.00;;;;10563947;27;20184;-79
2022/04/17 14:08:44;;;;;;;4.15;3.03;;;;;33.00;101672.00;;;;10536692;28;20761;-79
2022/04/17 14:13:46;;;;;;;3.28;2.97;;;;;33.60;101662.00;;;;10559957;27;20226;-79
2022/04/17 14:18:48;;;;;;;4.35;3.25;;;;;33.60;101663.00;;;;10552899;27;20722;-80
2022/04/17 14:23:53;;;;;;;3.42;3.13;;;;;33.60;101654.00;;;;10550177;27;20197;-79
2022/04/17 14:28:55;;;;;;;5.18;3.47;;;;;33.80;101651.00;;;;10549146;27;20212;-79
2022/04/17 14:34:03;;;;;;;3.67;3.38;;;;;34.50;101641.00;;;;10564145;27;20563;-80
2022/04/17 14:39:05;;;;;;;3.80;3.50;;;;;35.10;101636.00;;;;10550819;27;20626;-79
2022/04/17 14:44:07;;;;;;;3.78;3.05;;;;;35.40;101634.00;;;;10537049;28;20747;-80
2022/04/17 14:49:09;;;;;;;4.07;3.22;;;;;35.70;101630.00;;;;10538699;27;20940;-81
2022/04/17 14:54:13;;;;;;;3.50;3.20;;;;;35.50;101627.00;;;;10546632;27;20188;-80
2022/04/17 14:59:16;;;;;;;3.15;2.85;;;;;35.30;101618.00;;;;10534865;27;20227;-79
2022/04/17 15:04:21;;;;;;;2.53;2.33;;;;;34.00;101624.00;;;;10519725;28;20257;-80
2022/04/17 15:09:26;;;;;;;2.38;2.17;;;;;33.10;101640.00;;;;10550232;28;20253;-80
2022/04/17 15:14:28;;;;;;;2.70;2.50;;;;;28.60;101628.00;;;;10510451;28;20292;-79
2022/04/17 15:19:36;;;;;;;5.95;4.18;;;;;25.60;101622.00;;;;10537497;28;20647;-80
2022/04/17 15:24:38;;;;;;;4.97;2.55;;;;;24.10;101617.00;;;;10584633;27;20185;-80
2022/04/17 15:29:41;;;;;;;5.60;1.80;;;;;23.10;101604.00;;;;10549615;28;20196;-79
2022/04/17 15:34:43;;;;;;;5.32;1.85;;;;;22.80;101591.00;;;;10541008;28;20189;-80
2022/04/17 15:39:45;;;;;;;2.55;2.35;;;;;22.60;101586.00;;;;10532917;28;20250;-80
2022/04/17 15:50:08;;;;;;;2.78;2.10;;;;;22.90;101580.00;;;;10561990;28;20257;-79
2022/04/17 15:55:10;;;;;;;2.15;2.00;;;;;22.10;101573.00;;;;10516417;28;20282;-80
2022/04/17 16:00:14;;;;;;;2.35;2.10;;;;;21.60;101569.00;;;;10538640;28;20323;-79
2022/04/17 16:05:16;;;;;;;2.75;1.80;;;;;21.70;101562.00;;;;10536559;28;20289;-80
2022/04/17 16:10:18;;;;;;;1.60;1.50;;;;;22.10;101557.00;;;;10561474;28;20232;-78
2022/04/17 16:15:20;;;;;;;2.17;1.98;;;;;21.40;101549.00;;;;10537377;28;20197;-78
2022/04/17 16:20:21;;;;;;;1.75;1.65;;;;;20.90;101540.00;;;;10550400;28;20173;-79
2022/04/17 16:25:24;;;;;;;2.22;2.00;;;;;20.60;101536.00;;;;10531690;28;20184;-80
2022/04/17 16:30:27;;;;;;;3.25;1.60;;;;;20.40;101533.00;;;;10529158;28;20208;-79
2022/04/17 16:35:28;;;;;;;3.03;1.55;;;;;20.20;101531.00;;;;10544454;28;20250;-81
2022/04/17 16:40:30;;;;;;;2.53;2.33;;;;;20.10;101529.00;;;;10497708;28;20274;-80
2022/04/17 16:45:32;;;;;;;2.58;2.15;;;;;20.00;101526.00;;;;10523848;28;20222;-80
2022/04/17 16:50:34;;;;;;;4.90;4.13;;;;;20.00;101524.00;;;;10507187;28;20236;-80
2022/04/17 16:55:36;;;;;;;28.20;19.75;;;;;19.90;101515.00;;;;10544356;28;20193;-80
2022/04/17 17:00:38;;;;;;;2.13;1.65;;;;;19.80;101509.00;;;;10531676;28;20181;-81
2022/04/17 17:05:40;;;;;;;2.10;1.67;;;;;19.70;101496.00;;;;10545570;28;20192;-80
2022/04/17 17:10:43;;;;;;;1.75;1.35;;;;;19.60;101491.00;;;;10563659;28;20211;-80
2022/04/17 17:15:44;;;;;;;1.50;1.40;;;;;19.60;101488.00;;;;10533705;28;20589;-80
2022/04/17 17:20:46;;;;;;;2.45;1.42;;;;;19.40;101490.00;;;;10547396;28;20176;-81
2022/04/17 17:25:48;;;;;;;1.58;1.10;;;;;19.40;101486.00;;;;10560766;28;20208;-81
2022/04/17 17:30:52;;;;;;;1.30;1.17;;;;;19.20;101478.00;;;;10533932;28;20204;-81
2022/04/17 17:36:02;;;;;;;1.52;1.10;;;;;19.10;101477.00;;;;10538186;28;20196;-81
2022/04/17 17:41:06;;;;;;;1.80;1.10;;;;;18.90;101473.00;;;;10520655;28;20208;-81
2022/04/17 17:46:08;;;;;;;1.40;1.30;;;;;18.70;101471.00;;;;10541766;28;20283;-80
2022/04/17 17:51:12;;;;;;;2.17;1.48;;;;;18.50;101473.00;;;;10528704;28;20208;-80
2022/04/17 17:56:14;;;;;;;2.50;1.40;;;;;18.30;101476.00;;;;10563696;28;20539;-80
2022/04/17 18:01:16;;;;;;;3.17;1.17;;;;;18.20;101471.00;;;;10554072;28;20644;-80
2022/04/17 18:06:18;;;;;;;2.65;1.30;;;;;18.00;101477.00;;;;10560246;27;20199;-81
2022/04/17 18:16:41;;;;;;;2.88;1.33;;;;;17.50;101480.00;;;;10576781;28;20196;-81
2022/04/17 18:21:43;;;;;;;4.18;1.33;;;;;17.30;101472.00;;;;10541295;28;20192;-80
2022/04/17 18:26:45;;;;;;;2.35;1.60;;;;;17.00;101476.00;;;;10523329;28;20256;-80
2022/04/17 18:31:48;;;;;;;3.83;2.37;;;;;16.70;101478.00;;;;10509010;28;20197;-81
2022/04/17 18:36:49;;;;;;;3.90;3.07;;;;;16.50;101488.00;;;;10506753;28;20194;-81
2022/04/17 18:41:51;;;;;;;3.43;3.13;;;;;16.20;101472.00;;;;10569658;28;20204;-81
2022/04/17 18:46:53;;;;;;;3.23;2.70;;;;;16.10;101472.00;;;;10511299;28;20668;-81
2022/04/17 18:51:55;;;;;;;4.63;2.13;;;;;15.90;101473.00;;;;10525757;28;20201;-81
2022/04/17 18:56:58;;;;;;;1.90;1.40;;;;;15.90;101475.00;;;;10509634;28;20200;-80
2022/04/17 19:02:00;;;;;;;3.57;1.20;;;;;15.80;101472.00;;;;10526767;28;20192;-80
2022/04/17 19:07:03;;;;;;;3.13;1.63;;;;;15.70;101472.00;;;;10539759;28;20231;-81
2022/04/17 19:17:26;;;;;;;2.70;1.30;;;;;15.30;101478.00;;;;10526938;28;20189;-81
2022/04/17 19:22:28;;;;;;;2.07;1.30;;;;;15.00;101480.00;;;;10531096;28;20193;-80
2022/04/17 19:27:33;;;;;;;2.13;1.33;;;;;14.80;101476.00;;;;10534240;28;20695;-81
2022/04/17 19:37:57;;;;;;;1.73;1.30;;;;;14.40;101472.00;;;;10535042;28;20196;-81
2022/04/17 19:42:59;;;;;;;2.70;1.30;;;;;14.10;101469.00;;;;10538094;28;20692;-81
2022/04/17 19:48:01;;;;;;;1.80;1.10;;;;;13.90;101470.00;;;;10539666;28;20327;-80
2022/04/17 19:53:03;;;;;;;2.33;1.23;;;;;13.80;101471.00;;;;10529791;28;20306;-81
2022/04/17 19:58:05;;;;;;;1.50;1.10;;;;;13.70;101463.00;;;;10499764;28;20185;-81
2022/04/17 20:03:07;;;;;;;3.20;1.27;;;;;13.60;101458.00;;;;10538048;28;20196;-81
2022/04/17 20:08:09;;;;;;;2.33;1.57;;;;;13.40;101454.00;;;;10517866;28;20769;-81
2022/04/17 20:13:11;;;;;;;3.90;1.30;;;;;13.20;101452.00;;;;10513088;28;20197;-80
2022/04/17 20:18:13;;;;;;;2.43;1.17;;;;;13.10;101449.00;;;;10514444;28;20837;-81
2022/04/17 20:23:15;;;;;;;3.23;1.80;;;;;13.00;101444.00;;;;10552645;28;20242;-80
2022/04/17 20:28:17;;;;;;;5.30;1.47;;;;;12.90;101433.00;;;;10529117;28;20250;-80
2022/04/17 20:33:19;;;;;;;3.40;1.40;;;;;12.80;101428.00;;;;10552376;28;20199;-80
2022/04/17 20:38:21;;;;;;;2.27;1.37;;;;;12.80;101432.00;;;;10535907;28;20261;-80
2022/04/17 20:54:04;;;;;;;3.50;1.47;;;;;12.80;101417.00;;;;10536504;28;20251;-80
2022/04/17 20:59:06;;;;;;;3.73;1.47;;;;;12.80;101415.00;;;;10510048;28;20189;-80
2022/04/17 21:04:08;;;;;;;1.40;1.20;;;;;12.80;101408.00;;;;10562401;28;20283;-80
2022/04/17 21:09:10;;;;;;;2.20;1.20;;;;;12.70;101407.00;;;;10513654;28;20204;-80
2022/04/17 21:14:12;;;;;;;4.07;1.30;;;;;12.60;101410.00;;;;10500698;28;20203;-80
2022/04/17 21:19:14;;;;;;;3.20;1.50;;;;;12.40;101405.00;;;;10522687;28;20199;-80
2022/04/17 21:24:16;;;;;;;3.50;1.53;;;;;12.20;101400.00;;;;10519973;28;20632;-81
2022/04/17 21:29:18;;;;;;;7.30;1.67;;;;;12.10;101405.00;;;;10519305;28;20205;-80
2022/04/17 21:34:20;;;;;;;1.77;1.33;;;;;12.00;101400.00;;;;10542419;28;20215;-80
2022/04/17 21:39:22;;;;;;;1.73;1.10;;;;;11.90;101405.00;;;;10491535;28;20273;-80
2022/04/17 21:44:24;;;;;;;1.33;1.20;;;;;11.70;101415.00;;;;10531542;28;20192;-81
2022/04/17 21:49:26;;;;;;;2.77;1.40;;;;;11.50;101416.00;;;;10522665;28;20227;-81
2022/04/17 21:54:28;;;;;;;2.70;1.23;;;;;11.30;101420.00;;;;10521563;28;20296;-81
2022/04/17 22:04:51;;;;;;;2.80;1.47;;;;;10.90;101417.00;;;;10538605;28;20192;-81
2022/04/17 22:09:53;;;;;;;2.43;1.40;;;;;10.80;101418.00;;;;10523850;28;20200;-81
2022/04/17 22:14:55;;;;;;;3.03;1.43;;;;;10.60;101405.00;;;;10519160;28;20185;-80
2022/04/17 22:19:57;;;;;;;2.17;1.33;;;;;10.50;101403.00;;;;10524382;28;20240;-81
2022/04/17 22:24:59;;;;;;;2.53;1.47;;;;;10.30;101406.00;;;;10530111;28;20698;-81
2022/04/17 22:30:01;;;;;;;2.70;1.57;;;;;10.20;101404.00;;;;10561431;27;20197;-80
2022/04/17 22:35:03;;;;;;;2.20;1.37;;;;;10.00;101408.00;;;;10527574;27;20220;-80
2022/04/17 22:40:09;;;;;;;2.30;1.47;;;;;9.90;101407.00;;;;10532378;28;20216;-80
2022/04/17 22:45:13;;;;;;;1.63;1.53;;;;;9.60;101396.00;;;;10530405;28;20226;-80
2022/04/17 22:50:16;;;;;;;2.07;1.53;;;;;9.50;101400.00;;;;10528409;28;20197;-80
2022/04/17 22:55:18;;;;;;;2.27;1.53;;;;;9.30;101388.00;;;;10526015;28;20258;-80
2022/04/17 23:05:40;;;;;;;3.40;1.60;;;;;9.10;101380.00;;;;10553999;28;20200;-81
2022/04/17 23:10:42;;;;;;;3.83;1.53;;;;;9.00;101384.00;;;;10556564;28;20196;-80
2022/04/17 23:15:44;;;;;;;2.40;1.83;;;;;8.90;101375.00;;;;10545991;28;20268;-80
2022/04/17 23:20:46;;;;;;;7.97;1.67;;;;;8.80;101377.00;;;;10552589;28;20271;-81
2022/04/17 23:25:49;;;;;;;2.20;1.70;;;;;8.80;101379.00;;;;10523364;28;20189;-81
2022/04/17 23:30:51;;;;;;;4.37;1.70;;;;;8.70;101375.00;;;;10524202;28;20200;-80
2022/04/17 23:35:53;;;;;;;2.30;1.33;;;;;8.60;101383.00;;;;10513976;28;20199;-82
2022/04/17 23:40:55;;;;;;;4.20;1.43;;;;;8.40;101373.00;;;;10541792;28;20218;-80
2022/04/17 23:45:57;;;;;;;3.53;1.80;;;;;8.20;101380.00;;;;10503746;28;20204;-80
2022/04/17 23:50:59;;;;;;;2.50;1.80;;;;;8.00;101373.00;;;;10555916;27;20215;-80
2022/04/17 23:56:01;;;;;;;1.60;1.50;;;;;7.90;101379.00;;;;10526778;28;20188;-80
